Time;durP1;ratioP1;P1;durP2;ratioP2;P2;SDS_P1;SDS_P2;PMS_P1;PMS_P2;Temp;Humidity;BMP_temperature;BMP_pressure;BME280_temperature;BME280_humidity;BME280_pressure;Samples;Min_cycle;Max_cycle;Signal;HPM_P1;HPM_P2
2022/07/04 00:00:30;;;;;;;9.30;2.53;;;13.70;99.90;;;;;;5012437;28;20073;-82
2022/07/04 00:02:56;;;;;;;10.02;2.53;;;13.70;99.90;;;;;;4996945;28;20031;-83
2022/07/04 00:05:27;;;;;;;9.73;2.50;;;13.70;99.90;;;;;;4997281;28;20011;-83
2022/07/04 00:08:13;;;;;;;11.30;2.97;;;13.60;99.90;;;;;;4997318;28;20035;-83
2022/07/04 00:10:39;;;;;;;9.25;2.90;;;;;;;;;;4994882;28;20039;-83
2022/07/04 00:13:05;;;;;;;9.57;2.75;;;13.60;99.90;;;;;;4995733;28;20093;-83
2022/07/04 00:15:31;;;;;;;12.52;2.55;;;13.50;99.90;;;;;;4998073;28;20038;-83
2022/07/04 00:18:52;;;;;;;11.48;2.75;;;13.50;99.90;;;;;;4997214;28;20027;-83
2022/07/04 00:21:18;;;;;;;11.30;2.95;;;13.50;99.90;;;;;;5012284;28;20054;-83
2022/07/04 00:23:43;;;;;;;12.00;2.72;;;13.60;99.90;;;;;;4997462;28;20031;-83
2022/07/04 00:26:09;;;;;;;8.55;2.60;;;13.50;99.90;;;;;;4997172;28;20026;-82
2022/07/04 00:28:35;;;;;;;10.65;2.40;;;13.60;99.90;;;;;;4997167;28;20030;-83
2022/07/04 00:31:28;;;;;;;11.30;3.40;;;13.50;99.90;;;;;;4997232;28;20057;-83
2022/07/04 00:34:25;;;;;;;11.10;2.67;;;13.50;99.90;;;;;;4998391;28;20030;-84
2022/07/04 00:37:11;;;;;;;7.95;2.97;;;13.50;99.90;;;;;;4997673;28;20031;-82
2022/07/04 00:39:36;;;;;;;8.20;2.40;;;13.40;99.90;;;;;;5000217;28;20015;-83
2022/07/04 00:42:03;;;;;;;13.40;3.40;;;13.40;99.90;;;;;;4999683;28;20022;-82
2022/07/04 00:44:54;;;;;;;9.07;2.50;;;13.40;99.90;;;;;;5000246;28;20104;-83
2022/07/04 00:48:01;;;;;;;11.20;2.97;;;13.40;99.90;;;;;;4999767;28;20035;-83
2022/07/04 00:50:55;;;;;;;6.05;2.65;;;13.40;99.90;;;;;;4990874;28;20042;-83
2022/07/04 00:54:07;;;;;;;13.25;2.97;;;13.40;99.90;;;;;;5000419;28;20030;-83
2022/07/04 00:56:59;;;;;;;7.10;2.95;;;13.30;99.90;;;;;;5000785;28;20043;-83
2022/07/04 00:59:28;;;;;;;11.35;2.72;;;13.30;99.90;;;;;;5000072;28;20031;-83
2022/07/04 01:01:58;;;;;;;9.90;2.85;;;13.30;99.90;;;;;;5022726;23;20038;-82
2022/07/04 01:04:24;;;;;;;8.20;2.60;;;13.30;99.90;;;;;;5020476;28;20011;-82
2022/07/04 01:06:50;;;;;;;10.88;2.90;;;13.20;99.90;;;;;;5020468;28;20045;-83
2022/07/04 01:09:16;;;;;;;13.18;2.88;;;13.20;99.90;;;;;;5020635;28;20050;-83
2022/07/04 01:11:41;;;;;;;9.45;3.35;;;13.20;99.90;;;;;;5021513;28;20022;-83
2022/07/04 01:14:07;;;;;;;10.90;2.83;;;13.10;99.90;;;;;;5020488;28;20015;-83
2022/07/04 01:16:36;;;;;;;14.00;2.53;;;13.10;99.90;;;;;;5021110;28;20070;-83
2022/07/04 01:19:03;;;;;;;6.90;2.75;;;13.10;99.90;;;;;;5020107;28;20039;-84
2022/07/04 01:21:32;;;;;;;10.63;2.78;;;13.20;99.90;;;;;;5035971;28;20038;-83
2022/07/04 01:24:22;;;;;;;7.43;2.67;;;13.10;99.90;;;;;;5012203;28;20017;-83
2022/07/04 01:26:48;;;;;;;11.35;2.67;;;13.10;99.90;;;;;;5013306;28;20117;-94
2022/07/04 01:29:14;;;;;;;7.90;2.58;;;13.10;99.90;;;;;;5012895;28;20360;-94
2022/07/04 01:31:43;;;;;;;11.30;2.50;;;13.20;99.90;;;;;;5036412;28;20030;-84
2022/07/04 01:34:24;;;;;;;10.20;2.55;;;13.20;99.90;;;;;;5020627;28;20046;-83
2022/07/04 01:36:50;;;;;;;10.38;2.92;;;13.10;99.90;;;;;;5019835;28;20016;-84
2022/07/04 01:39:23;;;;;;;9.43;2.83;;;13.20;99.90;;;;;;5020112;28;20054;-83
2022/07/04 01:41:48;;;;;;;10.68;3.15;;;13.20;99.90;;;;;;5019666;28;20045;-84
2022/07/04 01:44:30;;;;;;;10.32;2.95;;;13.20;99.90;;;;;;5015980;28;20030;-84
2022/07/04 01:47:16;;;;;;;6.15;2.70;;;13.20;99.90;;;;;;5017591;28;20026;-83
2022/07/04 01:49:41;;;;;;;7.28;2.75;;;13.20;99.90;;;;;;4998715;28;20030;-93
2022/07/04 01:52:33;;;;;;;8.80;3.05;;;13.10;99.90;;;;;;5011727;28;20050;-86
2022/07/04 01:55:18;;;;;;;7.88;2.75;;;13.10;99.90;;;;;;5015209;28;20106;-85
2022/07/04 01:57:43;;;;;;;5.97;2.55;;;13.10;99.90;;;;;;5032624;28;20038;-91
2022/07/04 02:02:57;;;;;;;9.35;2.70;;;13.00;99.90;;;;;;4999735;28;20080;-93
2022/07/04 02:05:29;;;;;;;6.38;2.92;;;12.90;99.90;;;;;;5013846;28;20038;-83
2022/07/04 02:07:55;;;;;;;11.80;3.33;;;12.90;99.90;;;;;;5018665;28;20076;-90
2022/07/04 02:10:45;;;;;;;11.02;3.13;;;12.90;99.90;;;;;;5021233;28;20045;-85
2022/07/04 02:13:25;;;;;;;10.77;2.75;;;12.90;99.90;;;;;;5018048;28;20333;-83
2022/07/04 02:15:51;;;;;;;8.00;3.15;;;12.90;99.90;;;;;;5028240;28;20037;-94
2022/07/04 02:18:16;;;;;;;8.02;2.60;;;12.80;99.90;;;;;;4991555;28;20022;-92
2022/07/04 02:20:42;;;;;;;11.05;3.05;;;12.90;99.90;;;;;;4991373;28;20039;-92
2022/07/04 02:23:08;;;;;;;12.35;3.42;;;12.90;99.90;;;;;;4991692;28;20475;-90
2022/07/04 02:25:33;;;;;;;8.57;3.10;;;12.80;99.90;;;;;;4992407;28;20022;-91
2022/07/04 02:27:59;;;;;;;12.18;3.13;;;12.80;99.90;;;;;;4991812;28;20113;-93
2022/07/04 02:30:25;;;;;;;10.50;2.60;;;12.70;99.90;;;;;;4991668;28;20112;-92
2022/07/04 02:32:51;;;;;;;10.13;3.10;;;12.80;99.90;;;;;;4991165;28;20026;-93
2022/07/04 02:35:16;;;;;;;10.82;2.97;;;12.80;99.90;;;;;;4991586;28;20027;-93
2022/07/04 02:37:42;;;;;;;8.15;3.10;;;12.90;99.90;;;;;;4999568;28;20552;-90
2022/07/04 02:40:08;;;;;;;9.07;2.90;;;12.80;99.90;;;;;;4991411;28;20475;-90
2022/07/04 02:42:36;;;;;;;10.50;2.80;;;12.80;99.90;;;;;;4991969;28;20027;-92
2022/07/04 02:45:01;;;;;;;8.95;3.20;;;12.90;99.90;;;;;;5007069;28;20027;-92
2022/07/04 02:47:27;;;;;;;11.80;3.05;;;12.90;99.90;;;;;;5006512;28;20041;-93
2022/07/04 02:49:54;;;;;;;10.23;3.20;;;12.90;99.90;;;;;;4995869;28;20042;-92
2022/07/04 02:52:19;;;;;;;10.45;3.05;;;12.90;99.90;;;;;;5013769;28;20045;-90
2022/07/04 02:54:46;;;;;;;6.32;2.78;;;13.00;99.90;;;;;;5014515;28;20027;-93
2022/07/04 02:57:12;;;;;;;6.45;2.50;;;13.00;99.90;;;;;;4992769;28;20038;-94
2022/07/04 02:59:38;;;;;;;11.52;3.55;;;13.00;99.90;;;;;;4991291;28;20054;-83
2022/07/04 03:02:04;;;;;;;6.78;2.60;;;13.10;99.90;;;;;;5006356;28;20124;-92
2022/07/04 03:04:31;;;;;;;13.48;2.65;;;13.10;99.90;;;;;;5007265;28;20022;-89
2022/07/04 03:07:01;;;;;;;7.35;2.42;;;13.00;99.90;;;;;;5011865;28;20011;-84
2022/07/04 03:09:27;;;;;;;7.22;2.60;;;13.00;99.90;;;;;;4995058;28;20088;-94
2022/07/04 03:11:53;;;;;;;7.20;2.90;;;12.90;99.90;;;;;;4992546;28;20433;-92
2022/07/04 03:14:19;;;;;;;8.85;2.70;;;12.90;99.90;;;;;;4997987;28;20573;-94
2022/07/04 03:16:44;;;;;;;9.50;2.70;;;12.90;99.90;;;;;;4996918;28;20022;-93
2022/07/04 03:19:10;;;;;;;11.25;2.78;;;12.90;99.90;;;;;;4998868;28;20082;-89
2022/07/04 03:21:36;;;;;;;8.68;2.70;;;12.80;99.90;;;;;;5016778;28;20112;-90
2022/07/04 03:24:01;;;;;;;6.53;2.63;;;12.80;99.90;;;;;;4975700;28;20038;-92
2022/07/04 03:26:29;;;;;;;8.50;2.53;;;12.80;99.90;;;;;;5009785;28;20474;-93
2022/07/04 03:28:55;;;;;;;5.37;2.60;;;12.80;99.90;;;;;;5004206;28;20026;-92
2022/07/04 03:31:21;;;;;;;6.68;2.60;;;12.80;99.90;;;;;;4997919;28;20825;-93
2022/07/04 03:33:47;;;;;;;10.30;2.88;;;12.80;99.90;;;;;;4990952;28;20049;-93
2022/07/04 03:36:12;;;;;;;8.50;2.78;;;12.80;99.90;;;;;;4995577;28;20038;-93
2022/07/04 03:38:44;;;;;;;7.07;2.72;;;12.80;99.90;;;;;;4999668;28;20053;-96
2022/07/04 03:41:21;;;;;;;8.30;2.80;;;12.80;99.90;;;;;;5015938;28;20027;-86
2022/07/04 03:43:46;;;;;;;9.20;2.55;;;12.80;99.90;;;;;;5006986;28;20034;-91
2022/07/04 03:46:12;;;;;;;7.53;2.65;;;12.70;99.90;;;;;;5015325;28;20057;-82
2022/07/04 03:48:38;;;;;;;5.85;2.47;;;12.70;99.90;;;;;;5015602;28;20018;-91
2022/07/04 03:51:03;;;;;;;7.25;2.72;;;12.70;99.90;;;;;;5025822;28;20014;-87
2022/07/04 03:53:29;;;;;;;6.78;2.65;;;12.70;99.90;;;;;;5006971;28;20049;-94
2022/07/04 03:55:55;;;;;;;5.13;2.50;;;12.70;99.90;;;;;;5008983;28;20041;-92
2022/07/04 03:58:20;;;;;;;7.07;2.30;;;12.70;99.90;;;;;;5009475;28;20029;-90
2022/07/04 04:01:09;;;;;;;4.75;2.53;;;12.70;99.90;;;;;;5010082;28;20029;-83
2022/07/04 04:06:57;;;;;;;6.60;2.10;;;12.70;99.90;;;;;;4993984;28;20118;-83
2022/07/04 04:09:24;;;;;;;5.55;1.90;;;12.60;99.90;;;;;;4986489;28;20134;-90
2022/07/04 04:11:50;;;;;;;5.93;1.95;;;12.60;99.90;;;;;;4985460;28;20109;-90
2022/07/04 04:14:18;;;;;;;5.70;2.10;;;12.60;99.90;;;;;;4987660;28;20031;-89
2022/07/04 04:16:43;;;;;;;6.15;2.25;;;12.60;99.90;;;;;;4982961;28;20080;-86
2022/07/04 04:19:10;;;;;;;7.18;2.60;;;12.60;99.90;;;;;;4977933;28;20034;-95
2022/07/04 04:21:36;;;;;;;5.38;1.90;;;12.60;99.90;;;;;;4969815;28;20034;-94
2022/07/04 04:24:02;;;;;;;6.97;2.10;;;12.60;99.90;;;;;;4959912;28;20530;-92
2022/07/04 04:26:29;;;;;;;6.15;2.00;;;12.50;99.90;;;;;;4972326;28;20027;-87
2022/07/04 04:28:55;;;;;;;3.75;1.90;;;12.40;99.90;;;;;;4971540;28;20039;-89
2022/07/04 04:31:20;;;;;;;6.95;2.17;;;12.40;99.90;;;;;;4971494;28;20030;-90
2022/07/04 04:33:46;;;;;;;3.33;2.20;;;12.50;99.90;;;;;;4971295;28;20031;-91
2022/07/04 04:36:12;;;;;;;2.63;2.00;;;12.40;99.90;;;;;;4968912;28;20155;-85
2022/07/04 04:38:38;;;;;;;6.57;2.10;;;12.40;99.90;;;;;;4949341;28;20498;-90
2022/07/04 04:41:03;;;;;;;7.20;2.22;;;12.40;99.90;;;;;;4979350;28;20589;-91
2022/07/04 04:43:29;;;;;;;3.35;2.20;;;12.40;99.90;;;;;;4992159;28;20022;-90
2022/07/04 04:45:55;;;;;;;7.55;2.30;;;12.40;99.90;;;;;;4993411;28;20023;-91
2022/07/04 04:48:20;;;;;;;4.75;2.55;;;12.30;99.90;;;;;;5002060;28;20026;-93
2022/07/04 04:50:46;;;;;;;10.45;2.70;;;12.30;99.90;;;;;;4996696;28;20061;-90
2022/07/04 04:53:12;;;;;;;6.03;2.63;;;12.30;99.90;;;;;;5003340;28;20113;-82
2022/07/04 04:55:38;;;;;;;5.50;2.55;;;12.30;99.90;;;;;;4993985;28;20029;-89
2022/07/04 04:58:04;;;;;;;2.63;2.15;;;12.30;99.90;;;;;;5002078;28;20034;-82
2022/07/04 05:00:30;;;;;;;7.32;2.30;;;12.40;99.90;;;;;;4993470;28;20388;-83
2022/07/04 05:02:56;;;;;;;5.70;2.30;;;12.40;99.90;;;;;;5012102;28;20033;-86
2022/07/04 05:05:22;;;;;;;5.13;2.38;;;12.50;99.90;;;;;;5014297;28;20025;-84
2022/07/04 05:07:48;;;;;;;8.25;2.30;;;12.50;99.90;;;;;;5015904;28;20022;-82
2022/07/04 05:10:15;;;;;;;3.95;1.75;;;12.60;99.90;;;;;;5013945;28;20028;-89
2022/07/04 05:12:44;;;;;;;4.47;2.40;;;12.60;99.90;;;;;;5012843;28;20022;-84
2022/07/04 05:15:10;;;;;;;5.28;2.55;;;12.70;99.90;;;;;;5012568;28;20026;-90
2022/07/04 05:17:36;;;;;;;3.03;1.90;;;12.70;99.90;;;;;;5011498;28;20029;-82
2022/07/04 05:20:02;;;;;;;4.65;2.22;;;12.80;99.90;;;;;;5012098;28;20084;-91
2022/07/04 05:22:28;;;;;;;3.45;1.88;;;12.80;99.90;;;;;;5011628;28;20025;-88
2022/07/04 05:24:54;;;;;;;6.18;2.40;;;12.90;99.90;;;;;;5011175;28;20437;-85
2022/07/04 05:27:20;;;;;;;4.00;2.10;;;12.90;99.90;;;;;;5011290;28;20026;-84
2022/07/04 05:29:45;;;;;;;4.38;2.40;;;13.00;99.90;;;;;;5011389;28;20029;-82
2022/07/04 05:32:11;;;;;;;8.82;2.50;;;13.10;99.90;;;;;;5011728;28;20030;-85
2022/07/04 05:34:37;;;;;;;7.80;2.55;;;13.10;99.90;;;;;;5011147;28;20409;-84
2022/07/04 05:37:03;;;;;;;8.65;2.30;;;13.20;99.90;;;;;;5011013;28;20026;-85
2022/07/04 05:39:29;;;;;;;8.68;2.63;;;13.20;99.90;;;;;;5002819;28;20034;-85
2022/07/04 05:41:55;;;;;;;4.15;2.03;;;13.30;99.90;;;;;;4989937;28;20450;-85
2022/07/04 05:44:21;;;;;;;5.07;2.30;;;13.30;99.90;;;;;;4989825;28;20018;-86
2022/07/04 05:46:46;;;;;;;7.78;2.15;;;13.30;99.90;;;;;;4989567;28;20426;-86
2022/07/04 05:49:12;;;;;;;8.30;2.30;;;13.40;99.90;;;;;;5005611;28;20532;-85
2022/07/04 05:51:38;;;;;;;6.40;2.30;;;13.40;99.90;;;;;;4989702;28;20482;-84
2022/07/04 05:54:03;;;;;;;6.80;2.38;;;13.40;99.90;;;;;;4989686;28;20098;-80
2022/07/04 05:56:30;;;;;;;6.60;2.25;;;13.50;99.90;;;;;;4989602;28;20145;-83
2022/07/04 05:58:56;;;;;;;6.60;2.00;;;13.50;99.90;;;;;;4989751;28;20457;-84
2022/07/04 06:01:21;;;;;;;12.98;2.40;;;13.60;99.90;;;;;;4989282;28;20553;-85
2022/07/04 06:03:47;;;;;;;5.40;2.15;;;13.60;99.90;;;;;;4989488;28;20470;-85
2022/07/04 06:06:13;;;;;;;6.78;2.50;;;13.60;99.90;;;;;;4990300;28;20481;-85
2022/07/04 06:08:39;;;;;;;5.47;2.28;;;13.60;99.90;;;;;;4989306;28;20026;-86
2022/07/04 06:11:05;;;;;;;2.90;1.88;;;;;;;;;;4988020;28;20019;-82
2022/07/04 06:13:30;;;;;;;6.03;2.10;;;13.90;99.90;;;;;;4989275;28;20026;-82
2022/07/04 06:15:56;;;;;;;7.40;2.10;;;14.00;99.90;;;;;;4986000;28;20738;-84
2022/07/04 06:18:22;;;;;;;6.20;2.63;;;14.10;99.90;;;;;;4987479;28;20038;-85
2022/07/04 06:20:47;;;;;;;6.78;2.10;;;14.20;99.90;;;;;;4989911;28;20047;-81
2022/07/04 06:23:13;;;;;;;9.60;2.10;;;14.30;99.90;;;;;;4993152;28;20034;-86
2022/07/04 06:25:39;;;;;;;8.95;1.85;;;14.40;99.90;;;;;;4997441;28;20022;-82
2022/07/04 06:28:05;;;;;;;4.93;2.20;;;14.50;99.90;;;;;;4997341;28;20018;-86
2022/07/04 06:30:30;;;;;;;7.43;2.00;;;14.50;99.90;;;;;;4988841;28;20084;-86
2022/07/04 06:32:59;;;;;;;6.20;2.20;;;14.50;99.90;;;;;;4988939;28;20018;-86
2022/07/04 06:35:46;;;;;;;6.88;2.53;;;14.50;99.90;;;;;;4988847;28;20544;-85
2022/07/04 06:38:14;;;;;;;4.03;1.80;;;14.50;99.90;;;;;;5004189;28;20113;-86
2022/07/04 06:40:40;;;;;;;8.95;2.05;;;14.60;99.90;;;;;;4988774;28;20505;-81
2022/07/04 06:43:06;;;;;;;6.80;2.00;;;14.70;99.90;;;;;;4988725;28;20280;-81
2022/07/04 06:45:33;;;;;;;4.63;1.85;;;14.80;99.90;;;;;;4988718;28;20412;-84
2022/07/04 06:47:59;;;;;;;5.53;2.10;;;15.00;99.90;;;;;;4988646;28;20019;-84
2022/07/04 06:50:25;;;;;;;6.38;1.83;;;15.10;99.90;;;;;;4988696;28;20030;-85
2022/07/04 06:52:51;;;;;;;4.10;1.67;;;15.10;99.90;;;;;;5003627;28;20027;-86
2022/07/04 06:55:16;;;;;;;6.43;1.50;;;15.10;99.90;;;;;;4988885;28;20033;-81
2022/07/04 06:57:42;;;;;;;7.70;2.00;;;15.20;99.90;;;;;;4989277;28;20022;-85
2022/07/04 07:00:09;;;;;;;5.65;1.70;;;15.20;99.90;;;;;;4988326;28;20431;-80
2022/07/04 07:02:35;;;;;;;7.50;1.83;;;15.20;99.90;;;;;;4988392;28;20102;-85
2022/07/04 07:05:01;;;;;;;5.30;1.83;;;15.20;99.90;;;;;;4988317;28;20019;-81
2022/07/04 07:07:27;;;;;;;4.22;1.80;;;15.30;99.90;;;;;;4986786;28;20030;-86
2022/07/04 07:09:54;;;;;;;6.75;1.50;;;15.40;99.90;;;;;;4987628;28;20033;-85
2022/07/04 07:12:20;;;;;;;6.40;1.58;;;15.40;99.90;;;;;;4988216;28;20025;-81
2022/07/04 07:14:47;;;;;;;4.32;1.70;;;15.50;99.90;;;;;;4989106;28;20026;-82
2022/07/04 07:17:13;;;;;;;5.63;1.63;;;15.40;99.90;;;;;;4988981;28;20038;-84
2022/07/04 07:19:38;;;;;;;6.13;1.92;;;15.40;99.90;;;;;;4988283;28;20030;-82
2022/07/04 07:22:04;;;;;;;8.98;1.92;;;15.40;99.90;;;;;;4987653;28;20026;-83
2022/07/04 07:24:30;;;;;;;5.00;1.65;;;15.50;99.90;;;;;;4988028;28;20478;-84
2022/07/04 07:26:57;;;;;;;7.50;1.70;;;15.50;99.90;;;;;;4985642;28;20014;-81
2022/07/04 07:29:23;;;;;;;7.07;1.75;;;15.40;99.90;;;;;;4988166;28;20028;-86
2022/07/04 07:31:49;;;;;;;6.55;1.65;;;15.30;99.90;;;;;;4988108;28;20053;-82
2022/07/04 07:34:15;;;;;;;5.97;1.75;;;15.20;99.90;;;;;;4988833;28;20061;-81
2022/07/04 07:36:40;;;;;;;6.28;1.90;;;15.30;99.90;;;;;;4987349;28;20395;-85
2022/07/04 07:39:06;;;;;;;9.18;2.17;;;15.40;99.90;;;;;;4987996;28;20034;-81
2022/07/04 07:41:32;;;;;;;3.50;1.50;;;15.40;99.90;;;;;;4987935;28;20034;-85
2022/07/04 07:43:58;;;;;;;5.85;1.55;;;15.40;99.90;;;;;;4988192;28;20027;-86
2022/07/04 07:46:23;;;;;;;5.32;1.60;;;15.30;99.90;;;;;;4987969;28;20105;-85
2022/07/04 07:48:49;;;;;;;5.30;1.67;;;15.50;99.90;;;;;;4989457;28;20022;-81
2022/07/04 07:51:16;;;;;;;10.57;1.67;;;15.70;99.90;;;;;;4992098;28;20453;-82
2022/07/04 07:53:42;;;;;;;7.68;1.73;;;15.70;99.90;;;;;;4991832;28;20067;-86
2022/07/04 07:56:08;;;;;;;7.10;1.60;;;15.80;99.90;;;;;;4991833;28;20022;-84
2022/07/04 07:58:33;;;;;;;3.20;1.42;;;15.80;99.90;;;;;;4991733;28;20026;-81
2022/07/04 08:01:01;;;;;;;6.68;1.60;;;15.90;99.90;;;;;;4991131;28;20038;-81
2022/07/04 08:06:12;;;;;;;5.30;1.77;;;16.20;99.90;;;;;;4973963;28;20070;-82
2022/07/04 08:08:38;;;;;;;4.50;1.63;;;16.30;99.90;;;;;;4976548;28;20133;-85
2022/07/04 08:11:04;;;;;;;9.95;1.48;;;16.40;99.90;;;;;;4991543;28;20105;-83
2022/07/04 08:13:30;;;;;;;5.10;1.50;;;16.50;99.90;;;;;;4991500;28;20025;-85
2022/07/04 08:15:56;;;;;;;7.22;1.50;;;16.30;99.90;;;;;;4991378;28;20509;-80
2022/07/04 08:18:22;;;;;;;5.75;1.50;;;16.60;99.90;;;;;;4991471;28;20399;-86
2022/07/04 08:20:49;;;;;;;5.35;1.73;;;16.60;99.90;;;;;;4991624;28;20033;-82
2022/07/04 08:23:15;;;;;;;8.38;1.70;;;16.60;99.90;;;;;;4992036;28;20026;-83
2022/07/04 08:25:41;;;;;;;4.32;1.40;;;16.60;99.90;;;;;;4988728;28;20026;-86
2022/07/04 08:28:07;;;;;;;7.20;1.60;;;16.60;99.90;;;;;;4991241;28;20069;-85
2022/07/04 08:30:32;;;;;;;4.32;1.20;;;16.70;99.90;;;;;;4991215;28;20295;-82
2022/07/04 08:32:58;;;;;;;3.63;1.40;;;16.90;99.90;;;;;;4991076;28;20019;-81
2022/07/04 08:35:24;;;;;;;5.95;1.60;;;17.20;99.90;;;;;;4991318;28;20019;-81
2022/07/04 08:37:53;;;;;;;4.40;1.70;;;17.20;99.90;;;;;;5007769;28;20050;-86
2022/07/04 08:40:25;;;;;;;9.50;2.00;;;17.40;99.90;;;;;;5008211;28;20056;-82
2022/07/04 08:42:51;;;;;;;5.05;1.50;;;17.40;99.90;;;;;;4992589;28;20091;-82
2022/07/04 08:45:21;;;;;;;4.60;1.40;;;17.40;99.90;;;;;;4992250;28;20022;-82
2022/07/04 08:47:52;;;;;;;5.47;1.50;;;17.40;99.90;;;;;;4993287;28;20057;-85
2022/07/04 08:50:31;;;;;;;6.97;1.65;;;17.60;99.90;;;;;;4992425;28;20026;-80
2022/07/04 08:53:00;;;;;;;5.28;1.50;;;17.60;99.90;;;;;;4991308;28;20022;-81
2022/07/04 08:58:31;;;;;;;7.25;1.50;;;17.80;99.90;;;;;;4992235;28;20045;-84
2022/07/04 09:01:02;;;;;;;3.80;1.25;;;17.70;99.90;;;;;;4991810;28;20038;-81
2022/07/04 09:03:29;;;;;;;8.13;1.30;;;17.70;99.90;;;;;;5000131;28;20031;-81
2022/07/04 09:05:56;;;;;;;4.13;1.38;;;17.70;99.90;;;;;;4998148;28;20061;-83
2022/07/04 09:08:22;;;;;;;5.45;1.20;;;17.90;99.90;;;;;;5002549;28;20056;-79
2022/07/04 09:10:49;;;;;;;6.55;1.40;;;18.00;99.90;;;;;;4995265;28;20029;-85
2022/07/04 09:13:17;;;;;;;4.30;1.40;;;18.10;99.90;;;;;;4992029;28;20033;-86
2022/07/04 09:15:45;;;;;;;4.50;1.40;;;18.40;99.90;;;;;;4990504;28;20025;-82
2022/07/04 09:18:34;;;;;;;3.85;1.40;;;18.40;99.90;;;;;;4990714;28;20483;-84
2022/07/04 09:21:03;;;;;;;5.68;1.13;;;18.30;99.90;;;;;;4989649;28;20118;-87
2022/07/04 09:23:34;;;;;;;2.80;1.20;;;17.90;99.90;;;;;;4990429;28;20086;-85
2022/07/04 09:26:18;;;;;;;5.82;1.25;;;17.90;99.90;;;;;;4990545;28;20025;-82
2022/07/04 09:28:52;;;;;;;4.47;1.35;;;18.20;99.90;;;;;;4990182;28;20449;-82
2022/07/04 09:31:29;;;;;;;8.10;1.45;;;18.40;99.90;;;;;;4991138;28;20033;-85
2022/07/04 09:33:59;;;;;;;5.05;1.50;;;18.50;99.90;;;;;;4985737;28;20026;-86
2022/07/04 09:36:28;;;;;;;3.83;1.25;;;18.80;99.90;;;;;;4972027;28;20133;-81
2022/07/04 09:39:21;;;;;;;4.43;1.17;;;19.00;99.90;;;;;;4972025;28;20394;-82
2022/07/04 09:41:58;;;;;;;5.95;1.40;;;19.00;99.90;;;;;;4972936;28;20037;-86
2022/07/04 09:44:34;;;;;;;4.25;1.23;;;19.10;99.90;;;;;;4972198;28;20031;-86
2022/07/04 09:47:18;;;;;;;5.07;1.58;;;19.00;99.90;;;;;;4971585;28;20054;-86
2022/07/04 09:50:14;;;;;;;3.22;1.48;;;18.50;99.90;;;;;;4972560;28;20050;-81
2022/07/04 09:52:46;;;;;;;4.78;1.30;;;18.60;99.90;;;;;;4971812;28;20062;-82
2022/07/04 09:55:12;;;;;;;4.15;1.30;;;18.70;99.90;;;;;;4971916;28;20031;-86
2022/07/04 09:57:43;;;;;;;6.40;1.33;;;19.00;99.90;;;;;;4971921;28;20494;-86
2022/07/04 10:00:18;;;;;;;7.68;1.42;;;18.80;99.90;;;;;;4971609;28;20121;-81
2022/07/04 10:02:45;;;;;;;4.95;1.70;;;18.70;99.90;;;;;;4971485;28;20428;-82
2022/07/04 10:05:11;;;;;;;3.17;1.38;;;18.60;99.90;;;;;;4971662;28;20038;-86
2022/07/04 10:07:43;;;;;;;3.58;1.30;;;18.50;99.90;;;;;;4971757;28;20030;-87
2022/07/04 10:10:33;;;;;;;4.32;1.42;;;18.70;99.90;;;;;;4971655;28;20267;-87
2022/07/04 10:13:03;;;;;;;5.38;1.38;;;18.60;99.90;;;;;;4971285;28;20427;-85
2022/07/04 10:15:28;;;;;;;5.25;1.40;;;18.70;99.90;;;;;;4971383;28;20475;-84
2022/07/04 10:17:54;;;;;;;6.55;1.20;;;18.90;99.90;;;;;;4970859;28;20018;-86
2022/07/04 10:20:20;;;;;;;4.53;1.20;;;19.10;99.90;;;;;;4971815;28;20471;-84
2022/07/04 10:22:46;;;;;;;3.65;1.17;;;19.20;99.90;;;;;;4972272;28;20022;-86
2022/07/04 10:25:12;;;;;;;5.07;1.42;;;19.40;99.90;;;;;;4971375;28;20018;-86
2022/07/04 10:27:38;;;;;;;4.00;1.30;;;19.20;99.90;;;;;;4971314;28;20030;-86
2022/07/04 10:30:09;;;;;;;5.25;1.30;;;19.20;99.90;;;;;;4971212;28;20023;-82
2022/07/04 10:32:35;;;;;;;9.48;1.33;;;19.50;99.90;;;;;;4970682;28;20109;-86
2022/07/04 10:35:01;;;;;;;5.03;1.67;;;19.40;99.90;;;;;;4971379;28;20026;-86
2022/07/04 10:38:04;;;;;;;6.03;1.40;;;19.50;99.90;;;;;;4969874;28;20535;-82
2022/07/04 10:40:43;;;;;;;5.38;1.58;;;19.30;99.90;;;;;;4971092;28;20490;-86
2022/07/04 10:43:30;;;;;;;8.13;1.20;;;19.40;99.90;;;;;;4970979;28;20029;-82
2022/07/04 10:46:01;;;;;;;8.68;1.63;;;19.50;99.90;;;;;;4971014;28;20054;-86
2022/07/04 10:48:27;;;;;;;5.55;1.77;;;19.20;99.90;;;;;;4970340;28;20046;-85
2022/07/04 10:51:00;;;;;;;4.85;1.20;;;19.20;99.90;;;;;;4970886;28;20026;-82
2022/07/04 10:53:25;;;;;;;7.28;1.42;;;19.50;99.90;;;;;;4970603;28;20066;-88
2022/07/04 10:55:51;;;;;;;5.75;1.30;;;19.50;99.90;;;;;;4970082;28;20456;-87
2022/07/04 10:58:36;;;;;;;6.32;1.40;;;;;;;;;;4971336;28;20048;-87
2022/07/04 11:01:15;;;;;;;4.88;1.30;;;;;;;;;;4971306;28;20041;-81
2022/07/04 11:03:48;;;;;;;5.13;1.17;;;;;;;;;;4969140;28;20219;-86
2022/07/04 11:06:33;;;;;;;5.20;1.45;;;;;;;;;;4970824;28;20038;-86
2022/07/04 11:09:14;;;;;;;4.05;1.20;;;;;;;;;;4970853;28;20038;-86
2022/07/04 11:11:55;;;;;;;5.00;1.30;;;;;;;;;;4970540;28;20022;-86
2022/07/04 11:14:46;;;;;;;2.70;0.95;;;19.70;99.90;;;;;;4971445;28;20027;-87
2022/07/04 11:17:13;;;;;;;4.50;1.50;;;19.50;99.90;;;;;;4969982;28;20543;-87
2022/07/04 11:19:40;;;;;;;3.60;1.30;;;19.80;99.90;;;;;;4969097;28;20027;-88
2022/07/04 11:22:09;;;;;;;4.15;1.45;;;20.00;99.90;;;;;;4969986;28;20114;-86
2022/07/04 11:24:35;;;;;;;5.10;1.40;;;19.70;99.90;;;;;;4970624;28;20061;-82
2022/07/04 11:27:01;;;;;;;4.32;1.10;;;19.80;99.90;;;;;;4970356;28;20100;-87
2022/07/04 11:29:28;;;;;;;3.67;1.20;;;20.10;99.90;;;;;;4970313;28;20077;-87
2022/07/04 11:31:54;;;;;;;6.32;1.63;;;20.20;99.90;;;;;;4970009;28;20054;-81
2022/07/04 11:34:20;;;;;;;6.30;1.38;;;;;;;;;;4971176;28;20062;-86
2022/07/04 11:36:49;;;;;;;3.92;1.25;;;20.30;99.90;;;;;;4970159;28;20023;-84
2022/07/04 11:39:19;;;;;;;5.70;0.90;;;20.10;99.90;;;;;;4970106;28;20034;-80
2022/07/04 11:47:26;;;;;;;5.53;1.17;;;;;;;;;;4983852;28;20462;-87
2022/07/04 11:49:53;;;;;;;5.40;1.17;;;20.30;99.90;;;;;;4987167;28;20015;-81
2022/07/04 11:52:19;;;;;;;;;;;;;;;;;;4975088;28;20459;-85
2022/07/04 11:54:46;;;;;;;2.72;1.00;;;19.80;99.90;;;;;;4969972;28;20401;-86
2022/07/04 11:57:14;;;;;;;4.07;1.17;;;20.10;99.90;;;;;;4970106;28;20062;-87
2022/07/04 11:59:41;;;;;;;6.10;1.27;;;20.20;99.90;;;;;;4970007;28;20443;-85
2022/07/04 12:02:12;;;;;;;4.13;1.40;;;20.40;99.90;;;;;;4969195;28;20054;-86
2022/07/04 12:04:41;;;;;;;2.50;0.90;;;20.40;99.90;;;;;;4969900;28;20479;-86
2022/07/04 12:07:18;;;;;;;4.20;1.17;;;20.50;99.90;;;;;;4969880;28;20023;-86
2022/07/04 12:09:46;;;;;;;4.95;1.00;;;20.40;95.80;;;;;;4969794;28;20395;-82
2022/07/04 12:12:14;;;;;;;3.05;1.10;;;20.50;97.60;;;;;;4969921;28;20035;-87
2022/07/04 12:14:55;;;;;;;4.47;1.02;;;20.40;96.60;;;;;;4968672;28;20077;-87
2022/07/04 12:17:21;;;;;;;5.15;1.27;;;20.40;99.90;;;;;;4968539;28;20042;-84
2022/07/04 12:20:14;;;;;;;5.90;1.10;;;20.00;98.10;;;;;;4968437;28;20011;-86
2022/07/04 12:22:52;;;;;;;3.95;1.00;;;20.10;99.00;;;;;;4963634;28;20043;-87
2022/07/04 12:25:26;;;;;;;4.15;1.00;;;19.90;98.70;;;;;;4969501;28;20023;-86
2022/07/04 12:27:56;;;;;;;2.30;1.10;;;20.00;99.90;;;;;;4969300;28;20042;-86
2022/07/04 12:30:23;;;;;;;4.40;1.25;;;20.10;99.90;;;;;;4970556;28;20607;-86
2022/07/04 12:32:56;;;;;;;2.38;0.90;;;20.10;96.50;;;;;;4967813;28;20490;-86
2022/07/04 12:35:44;;;;;;;2.58;0.88;;;20.20;99.90;;;;;;4972863;28;20038;-86
2022/07/04 12:38:15;;;;;;;3.95;1.20;;;20.40;99.90;;;;;;4973264;28;20384;-82
2022/07/04 12:40:56;;;;;;;4.22;1.00;;;20.50;99.90;;;;;;4973182;28;20042;-85
2022/07/04 12:43:23;;;;;;;6.70;1.83;;;;;;;;;;4972955;28;20027;-82
2022/07/04 12:45:54;;;;;;;2.67;1.02;;;20.60;99.90;;;;;;4971757;28;20034;-87
2022/07/04 12:48:29;;;;;;;4.88;1.00;;;20.40;95.40;;;;;;4973150;28;20030;-86
2022/07/04 12:51:09;;;;;;;4.45;0.80;;;20.50;98.20;;;;;;4988888;28;20030;-85
2022/07/04 12:53:39;;;;;;;3.30;1.17;;;20.20;97.30;;;;;;4992019;28;20065;-81
2022/07/04 12:56:06;;;;;;;3.83;1.00;;;20.20;97.10;;;;;;4992447;28;20553;-81
2022/07/04 12:58:32;;;;;;;3.67;1.00;;;20.00;99.30;;;;;;4992310;28;20089;-84
2022/07/04 13:00:57;;;;;;;4.55;0.85;;;20.10;97.10;;;;;;4992188;28;20510;-80
2022/07/04 13:03:23;;;;;;;4.38;1.08;;;20.10;95.40;;;;;;4993061;28;20532;-87
2022/07/04 13:05:49;;;;;;;2.65;1.00;;;20.20;97.80;;;;;;4990747;28;20118;-88
2022/07/04 13:08:15;;;;;;;3.72;1.00;;;20.30;97.60;;;;;;4990641;28;20045;-84
2022/07/04 13:10:40;;;;;;;1.13;0.90;;;20.30;95.60;;;;;;4990441;28;20483;-84
2022/07/04 13:13:06;;;;;;;3.30;0.82;;;20.20;96.20;;;;;;4990509;28;20022;-87
2022/07/04 13:15:32;;;;;;;4.60;0.70;;;20.40;96.10;;;;;;4990658;28;20397;-86
2022/07/04 13:17:58;;;;;;;4.10;1.17;;;20.60;96.00;;;;;;4990472;28;20018;-82
2022/07/04 13:20:24;;;;;;;3.10;0.98;;;20.60;96.10;;;;;;4988732;28;20037;-86